sensor_id;sensor_type;location;lat;lon;timestamp;P1;durP1;ratioP1;P2;durP2;ratioP2
55218;SDS011;65463;43.864;20.136;2023-11-21T00:00:12;73.60;;;30.45;;
55218;SDS011;65463;43.864;20.136;2023-11-21T00:02:40;66.93;;;30.65;;
55218;SDS011;65463;43.864;20.136;2023-11-21T00:05:09;62.50;;;27.52;;
55218;SDS011;65463;43.864;20.136;2023-11-21T00:07:36;72.28;;;30.23;;
55218;SDS011;65463;43.864;20.136;2023-11-21T00:10:03;78.97;;;33.60;;
55218;SDS011;65463;43.864;20.136;2023-11-21T00:12:30;75.88;;;32.78;;
55218;SDS011;65463;43.864;20.136;2023-11-21T00:14:57;74.13;;;31.33;;
55218;SDS011;65463;43.864;20.136;2023-11-21T00:17:23;84.55;;;31.80;;
55218;SDS011;65463;43.864;20.136;2023-11-21T00:19:49;67.63;;;30.60;;
55218;SDS011;65463;43.864;20.136;2023-11-21T00:22:17;62.70;;;27.00;;
55218;SDS011;65463;43.864;20.136;2023-11-21T00:24:43;63.85;;;27.25;;
55218;SDS011;65463;43.864;20.136;2023-11-21T00:27:09;64.50;;;29.38;;
55218;SDS011;65463;43.864;20.136;2023-11-21T00:29:36;91.00;;;34.13;;
55218;SDS011;65463;43.864;20.136;2023-11-21T00:32:04;87.60;;;33.90;;
55218;SDS011;65463;43.864;20.136;2023-11-21T00:34:30;69.28;;;28.88;;
55218;SDS011;65463;43.864;20.136;2023-11-21T00:36:57;78.65;;;28.65;;
55218;SDS011;65463;43.864;20.136;2023-11-21T00:39:23;64.88;;;26.92;;
55218;SDS011;65463;43.864;20.136;2023-11-21T00:41:50;74.78;;;30.02;;
55218;SDS011;65463;43.864;20.136;2023-11-21T00:44:17;67.32;;;27.30;;
55218;SDS011;65463;43.864;20.136;2023-11-21T00:46:43;70.47;;;29.23;;
55218;SDS011;65463;43.864;20.136;2023-11-21T00:49:09;83.30;;;30.65;;
55218;SDS011;65463;43.864;20.136;2023-11-21T00:51:35;98.95;;;35.78;;
55218;SDS011;65463;43.864;20.136;2023-11-21T00:54:01;99.28;;;35.63;;
55218;SDS011;65463;43.864;20.136;2023-11-21T00:56:27;81.03;;;35.13;;
55218;SDS011;65463;43.864;20.136;2023-11-21T00:58:54;76.15;;;30.52;;
55218;SDS011;65463;43.864;20.136;2023-11-21T01:01:20;68.43;;;30.00;;
55218;SDS011;65463;43.864;20.136;2023-11-21T01:03:50;77.03;;;33.03;;
55218;SDS011;65463;43.864;20.136;2023-11-21T01:06:16;87.63;;;34.55;;
55218;SDS011;65463;43.864;20.136;2023-11-21T01:08:43;72.85;;;29.38;;
55218;SDS011;65463;43.864;20.136;2023-11-21T01:11:10;72.82;;;31.45;;
55218;SDS011;65463;43.864;20.136;2023-11-21T01:13:37;85.78;;;35.35;;
55218;SDS011;65463;43.864;20.136;2023-11-21T01:16:04;77.47;;;34.40;;
55218;SDS011;65463;43.864;20.136;2023-11-21T01:18:31;75.97;;;35.28;;
55218;SDS011;65463;43.864;20.136;2023-11-21T01:20:58;71.35;;;32.25;;
55218;SDS011;65463;43.864;20.136;2023-11-21T01:23:25;66.55;;;29.38;;
55218;SDS011;65463;43.864;20.136;2023-11-21T01:25:52;70.35;;;31.02;;
55218;SDS011;65463;43.864;20.136;2023-11-21T01:28:18;63.88;;;28.48;;
55218;SDS011;65463;43.864;20.136;2023-11-21T01:30:45;72.50;;;29.67;;
55218;SDS011;65463;43.864;20.136;2023-11-21T01:33:11;64.13;;;27.02;;
55218;SDS011;65463;43.864;20.136;2023-11-21T01:35:38;96.50;;;33.33;;
55218;SDS011;65463;43.864;20.136;2023-11-21T01:38:04;80.10;;;33.67;;
55218;SDS011;65463;43.864;20.136;2023-11-21T01:40:33;69.20;;;31.95;;
55218;SDS011;65463;43.864;20.136;2023-11-21T01:42:59;62.65;;;28.70;;
55218;SDS011;65463;43.864;20.136;2023-11-21T01:45:28;68.72;;;29.75;;
55218;SDS011;65463;43.864;20.136;2023-11-21T01:47:56;66.63;;;29.00;;
55218;SDS011;65463;43.864;20.136;2023-11-21T01:50:23;71.00;;;30.83;;
55218;SDS011;65463;43.864;20.136;2023-11-21T01:52:49;75.75;;;29.88;;
55218;SDS011;65463;43.864;20.136;2023-11-21T01:55:16;66.20;;;29.13;;
55218;SDS011;65463;43.864;20.136;2023-11-21T01:57:46;65.57;;;29.23;;
55218;SDS011;65463;43.864;20.136;2023-11-21T02:00:12;89.05;;;32.60;;
55218;SDS011;65463;43.864;20.136;2023-11-21T02:02:47;74.63;;;32.30;;
55218;SDS011;65463;43.864;20.136;2023-11-21T02:05:17;72.35;;;31.85;;
55218;SDS011;65463;43.864;20.136;2023-11-21T02:07:44;68.05;;;30.27;;
55218;SDS011;65463;43.864;20.136;2023-11-21T02:10:13;91.28;;;35.28;;
55218;SDS011;65463;43.864;20.136;2023-11-21T02:12:42;70.97;;;32.05;;
55218;SDS011;65463;43.864;20.136;2023-11-21T02:15:12;69.65;;;31.98;;
55218;SDS011;65463;43.864;20.136;2023-11-21T02:17:56;56.97;;;28.40;;
55218;SDS011;65463;43.864;20.136;2023-11-21T02:20:23;66.03;;;31.95;;
55218;SDS011;65463;43.864;20.136;2023-11-21T02:25:23;73.75;;;31.13;;
55218;SDS011;65463;43.864;20.136;2023-11-21T02:27:50;64.82;;;30.00;;
55218;SDS011;65463;43.864;20.136;2023-11-21T02:30:16;59.30;;;27.95;;
55218;SDS011;65463;43.864;20.136;2023-11-21T02:32:43;74.90;;;32.15;;
55218;SDS011;65463;43.864;20.136;2023-11-21T02:35:10;69.85;;;30.75;;
55218;SDS011;65463;43.864;20.136;2023-11-21T02:37:37;62.25;;;27.60;;
55218;SDS011;65463;43.864;20.136;2023-11-21T02:40:04;62.13;;;29.05;;
55218;SDS011;65463;43.864;20.136;2023-11-21T02:42:34;153.45;;;50.08;;
55218;SDS011;65463;43.864;20.136;2023-11-21T02:45:00;136.50;;;44.92;;
55218;SDS011;65463;43.864;20.136;2023-11-21T02:47:27;120.90;;;42.10;;
55218;SDS011;65463;43.864;20.136;2023-11-21T02:49:54;90.07;;;35.60;;
55218;SDS011;65463;43.864;20.136;2023-11-21T02:52:20;91.63;;;35.50;;
55218;SDS011;65463;43.864;20.136;2023-11-21T02:54:46;107.35;;;39.20;;
55218;SDS011;65463;43.864;20.136;2023-11-21T02:57:12;85.90;;;36.80;;
55218;SDS011;65463;43.864;20.136;2023-11-21T02:59:38;89.88;;;36.03;;
55218;SDS011;65463;43.864;20.136;2023-11-21T03:02:04;80.65;;;35.42;;
55218;SDS011;65463;43.864;20.136;2023-11-21T03:04:34;63.03;;;28.38;;
55218;SDS011;65463;43.864;20.136;2023-11-21T03:07:00;68.32;;;32.63;;
55218;SDS011;65463;43.864;20.136;2023-11-21T03:09:26;71.03;;;29.92;;
55218;SDS011;65463;43.864;20.136;2023-11-21T03:11:53;78.40;;;34.50;;
55218;SDS011;65463;43.864;20.136;2023-11-21T03:14:19;71.45;;;33.20;;
55218;SDS011;65463;43.864;20.136;2023-11-21T03:16:45;84.82;;;35.38;;
55218;SDS011;65463;43.864;20.136;2023-11-21T03:19:11;80.63;;;36.50;;
55218;SDS011;65463;43.864;20.136;2023-11-21T03:21:37;84.97;;;35.67;;
55218;SDS011;65463;43.864;20.136;2023-11-21T03:24:04;76.47;;;29.92;;
55218;SDS011;65463;43.864;20.136;2023-11-21T03:26:31;77.63;;;31.10;;
55218;SDS011;65463;43.864;20.136;2023-11-21T03:28:57;105.15;;;36.88;;
55218;SDS011;65463;43.864;20.136;2023-11-21T03:31:23;90.10;;;35.42;;
55218;SDS011;65463;43.864;20.136;2023-11-21T03:33:49;84.95;;;34.65;;
55218;SDS011;65463;43.864;20.136;2023-11-21T03:36:19;91.90;;;39.58;;
55218;SDS011;65463;43.864;20.136;2023-11-21T03:38:45;91.07;;;38.45;;
55218;SDS011;65463;43.864;20.136;2023-11-21T03:41:11;85.53;;;33.60;;
55218;SDS011;65463;43.864;20.136;2023-11-21T03:43:37;97.88;;;39.72;;
55218;SDS011;65463;43.864;20.136;2023-11-21T03:46:03;100.35;;;41.97;;
55218;SDS011;65463;43.864;20.136;2023-11-21T03:48:30;78.25;;;34.80;;
55218;SDS011;65463;43.864;20.136;2023-11-21T03:50:57;82.43;;;33.97;;
55218;SDS011;65463;43.864;20.136;2023-11-21T03:53:23;81.10;;;33.50;;
55218;SDS011;65463;43.864;20.136;2023-11-21T03:55:49;78.15;;;31.38;;
55218;SDS011;65463;43.864;20.136;2023-11-21T03:58:15;90.72;;;37.38;;
55218;SDS011;65463;43.864;20.136;2023-11-21T04:00:41;87.57;;;35.08;;
55218;SDS011;65463;43.864;20.136;2023-11-21T04:03:07;82.55;;;31.48;;
55218;SDS011;65463;43.864;20.136;2023-11-21T04:05:33;88.85;;;35.33;;
55218;SDS011;65463;43.864;20.136;2023-11-21T04:07:59;88.68;;;35.58;;
55218;SDS011;65463;43.864;20.136;2023-11-21T04:10:26;80.88;;;31.58;;
55218;SDS011;65463;43.864;20.136;2023-11-21T04:12:52;93.47;;;38.50;;
55218;SDS011;65463;43.864;20.136;2023-11-21T04:15:18;79.88;;;32.10;;
55218;SDS011;65463;43.864;20.136;2023-11-21T04:17:44;87.10;;;35.45;;
55218;SDS011;65463;43.864;20.136;2023-11-21T04:20:10;97.38;;;37.55;;
55218;SDS011;65463;43.864;20.136;2023-11-21T04:22:39;112.75;;;40.58;;
55218;SDS011;65463;43.864;20.136;2023-11-21T04:25:12;94.57;;;33.67;;
55218;SDS011;65463;43.864;20.136;2023-11-21T04:27:39;145.30;;;48.13;;
55218;SDS011;65463;43.864;20.136;2023-11-21T04:30:05;98.75;;;37.65;;
55218;SDS011;65463;43.864;20.136;2023-11-21T04:32:32;84.43;;;32.22;;
55218;SDS011;65463;43.864;20.136;2023-11-21T04:34:58;76.63;;;32.10;;
55218;SDS011;65463;43.864;20.136;2023-11-21T04:37:25;94.32;;;37.28;;
55218;SDS011;65463;43.864;20.136;2023-11-21T04:39:51;107.93;;;44.25;;
55218;SDS011;65463;43.864;20.136;2023-11-21T04:42:17;108.30;;;39.25;;
55218;SDS011;65463;43.864;20.136;2023-11-21T04:44:43;92.50;;;36.05;;
55218;SDS011;65463;43.864;20.136;2023-11-21T04:47:09;90.00;;;33.92;;
55218;SDS011;65463;43.864;20.136;2023-11-21T04:49:36;79.28;;;32.58;;
55218;SDS011;65463;43.864;20.136;2023-11-21T04:52:02;89.88;;;35.50;;
55218;SDS011;65463;43.864;20.136;2023-11-21T04:54:30;80.47;;;31.50;;
55218;SDS011;65463;43.864;20.136;2023-11-21T04:56:56;78.43;;;33.30;;
55218;SDS011;65463;43.864;20.136;2023-11-21T04:59:23;91.70;;;37.00;;
55218;SDS011;65463;43.864;20.136;2023-11-21T05:01:50;91.22;;;34.15;;
55218;SDS011;65463;43.864;20.136;2023-11-21T05:04:17;97.85;;;35.83;;
55218;SDS011;65463;43.864;20.136;2023-11-21T05:06:43;108.57;;;40.35;;
55218;SDS011;65463;43.864;20.136;2023-11-21T05:09:09;100.70;;;42.55;;
55218;SDS011;65463;43.864;20.136;2023-11-21T05:11:37;83.78;;;36.53;;
55218;SDS011;65463;43.864;20.136;2023-11-21T05:14:04;95.72;;;34.83;;
55218;SDS011;65463;43.864;20.136;2023-11-21T05:16:30;104.70;;;41.22;;
55218;SDS011;65463;43.864;20.136;2023-11-21T05:18:57;80.47;;;33.75;;
55218;SDS011;65463;43.864;20.136;2023-11-21T05:21:28;88.13;;;33.95;;
55218;SDS011;65463;43.864;20.136;2023-11-21T05:24:01;102.30;;;37.70;;
55218;SDS011;65463;43.864;20.136;2023-11-21T05:26:27;112.20;;;41.63;;
55218;SDS011;65463;43.864;20.136;2023-11-21T05:28:54;93.95;;;36.72;;
55218;SDS011;65463;43.864;20.136;2023-11-21T05:31:20;98.70;;;39.20;;
55218;SDS011;65463;43.864;20.136;2023-11-21T05:33:47;95.43;;;37.70;;
55218;SDS011;65463;43.864;20.136;2023-11-21T05:36:13;93.40;;;38.05;;
55218;SDS011;65463;43.864;20.136;2023-11-21T05:38:39;95.38;;;36.83;;
55218;SDS011;65463;43.864;20.136;2023-11-21T05:41:06;93.15;;;38.47;;
55218;SDS011;65463;43.864;20.136;2023-11-21T05:43:36;99.88;;;37.10;;
55218;SDS011;65463;43.864;20.136;2023-11-21T05:46:02;119.80;;;45.88;;
55218;SDS011;65463;43.864;20.136;2023-11-21T05:48:28;106.88;;;43.90;;
55218;SDS011;65463;43.864;20.136;2023-11-21T05:50:54;108.95;;;46.72;;
55218;SDS011;65463;43.864;20.136;2023-11-21T05:53:20;94.68;;;37.45;;
55218;SDS011;65463;43.864;20.136;2023-11-21T05:55:46;108.53;;;41.75;;
55218;SDS011;65463;43.864;20.136;2023-11-21T05:58:13;102.95;;;35.42;;
55218;SDS011;65463;43.864;20.136;2023-11-21T06:00:40;92.20;;;37.45;;
55218;SDS011;65463;43.864;20.136;2023-11-21T06:03:06;82.47;;;35.90;;
55218;SDS011;65463;43.864;20.136;2023-11-21T06:05:33;88.50;;;35.42;;
55218;SDS011;65463;43.864;20.136;2023-11-21T06:07:59;105.07;;;37.83;;
55218;SDS011;65463;43.864;20.136;2023-11-21T06:10:26;139.23;;;40.35;;
55218;SDS011;65463;43.864;20.136;2023-11-21T06:12:53;154.57;;;46.20;;
55218;SDS011;65463;43.864;20.136;2023-11-21T06:15:19;133.27;;;40.92;;
55218;SDS011;65463;43.864;20.136;2023-11-21T06:17:47;103.15;;;36.45;;
55218;SDS011;65463;43.864;20.136;2023-11-21T06:20:19;124.80;;;38.60;;
55218;SDS011;65463;43.864;20.136;2023-11-21T06:22:47;90.05;;;34.47;;
55218;SDS011;65463;43.864;20.136;2023-11-21T06:25:13;90.10;;;34.65;;
55218;SDS011;65463;43.864;20.136;2023-11-21T06:27:46;100.35;;;38.05;;
55218;SDS011;65463;43.864;20.136;2023-11-21T06:30:13;98.85;;;40.38;;
55218;SDS011;65463;43.864;20.136;2023-11-21T06:32:40;83.60;;;35.15;;
55218;SDS011;65463;43.864;20.136;2023-11-21T06:35:08;88.80;;;41.25;;
55218;SDS011;65463;43.864;20.136;2023-11-21T06:37:35;96.75;;;40.30;;
55218;SDS011;65463;43.864;20.136;2023-11-21T06:40:01;96.00;;;40.17;;
55218;SDS011;65463;43.864;20.136;2023-11-21T06:42:29;95.80;;;40.20;;
55218;SDS011;65463;43.864;20.136;2023-11-21T06:44:56;101.50;;;40.80;;
55218;SDS011;65463;43.864;20.136;2023-11-21T06:47:24;107.30;;;42.72;;
55218;SDS011;65463;43.864;20.136;2023-11-21T06:49:50;103.32;;;42.50;;
55218;SDS011;65463;43.864;20.136;2023-11-21T06:52:17;96.20;;;41.28;;
55218;SDS011;65463;43.864;20.136;2023-11-21T06:54:43;103.80;;;42.92;;
55218;SDS011;65463;43.864;20.136;2023-11-21T06:57:10;90.47;;;38.13;;
55218;SDS011;65463;43.864;20.136;2023-11-21T06:59:36;87.85;;;36.33;;
55218;SDS011;65463;43.864;20.136;2023-11-21T07:02:02;72.35;;;32.55;;
55218;SDS011;65463;43.864;20.136;2023-11-21T07:04:32;76.60;;;33.75;;
55218;SDS011;65463;43.864;20.136;2023-11-21T07:06:58;78.32;;;34.50;;
55218;SDS011;65463;43.864;20.136;2023-11-21T07:09:24;90.10;;;36.65;;
55218;SDS011;65463;43.864;20.136;2023-11-21T07:11:51;75.88;;;33.38;;
55218;SDS011;65463;43.864;20.136;2023-11-21T07:14:17;77.72;;;34.60;;
55218;SDS011;65463;43.864;20.136;2023-11-21T07:16:45;74.90;;;33.63;;
55218;SDS011;65463;43.864;20.136;2023-11-21T07:19:11;76.32;;;35.78;;
55218;SDS011;65463;43.864;20.136;2023-11-21T07:21:38;86.22;;;37.13;;
55218;SDS011;65463;43.864;20.136;2023-11-21T07:24:05;93.22;;;42.78;;
55218;SDS011;65463;43.864;20.136;2023-11-21T07:26:32;89.40;;;40.45;;
55218;SDS011;65463;43.864;20.136;2023-11-21T07:28:58;92.63;;;41.58;;
55218;SDS011;65463;43.864;20.136;2023-11-21T07:31:25;107.50;;;46.65;;
55218;SDS011;65463;43.864;20.136;2023-11-21T07:33:51;102.88;;;41.85;;
55218;SDS011;65463;43.864;20.136;2023-11-21T07:36:18;87.35;;;35.95;;
55218;SDS011;65463;43.864;20.136;2023-11-21T07:38:46;74.57;;;32.15;;
55218;SDS011;65463;43.864;20.136;2023-11-21T07:41:13;90.65;;;37.72;;
55218;SDS011;65463;43.864;20.136;2023-11-21T07:43:43;98.03;;;42.72;;
55218;SDS011;65463;43.864;20.136;2023-11-21T07:46:09;83.45;;;36.97;;
55218;SDS011;65463;43.864;20.136;2023-11-21T07:48:37;95.15;;;38.15;;
55218;SDS011;65463;43.864;20.136;2023-11-21T07:51:03;93.70;;;42.10;;
55218;SDS011;65463;43.864;20.136;2023-11-21T07:53:29;93.05;;;40.67;;
55218;SDS011;65463;43.864;20.136;2023-11-21T07:55:56;96.32;;;38.85;;
55218;SDS011;65463;43.864;20.136;2023-11-21T07:58:22;99.35;;;40.70;;
55218;SDS011;65463;43.864;20.136;2023-11-21T08:00:49;91.00;;;40.40;;
55218;SDS011;65463;43.864;20.136;2023-11-21T08:03:16;103.35;;;44.15;;
55218;SDS011;65463;43.864;20.136;2023-11-21T08:05:42;99.25;;;45.50;;
55218;SDS011;65463;43.864;20.136;2023-11-21T08:08:09;96.55;;;40.78;;
55218;SDS011;65463;43.864;20.136;2023-11-21T08:10:35;73.53;;;36.50;;
55218;SDS011;65463;43.864;20.136;2023-11-21T08:13:02;88.00;;;38.47;;
55218;SDS011;65463;43.864;20.136;2023-11-21T08:15:29;84.72;;;39.75;;
55218;SDS011;65463;43.864;20.136;2023-11-21T08:17:57;85.90;;;38.88;;
55218;SDS011;65463;43.864;20.136;2023-11-21T08:20:24;73.15;;;35.72;;
55218;SDS011;65463;43.864;20.136;2023-11-21T08:22:50;80.65;;;36.72;;
55218;SDS011;65463;43.864;20.136;2023-11-21T08:25:17;83.13;;;37.80;;
55218;SDS011;65463;43.864;20.136;2023-11-21T08:27:45;84.47;;;38.67;;
55218;SDS011;65463;43.864;20.136;2023-11-21T08:30:11;74.95;;;37.03;;
55218;SDS011;65463;43.864;20.136;2023-11-21T08:35:08;82.43;;;33.72;;
55218;SDS011;65463;43.864;20.136;2023-11-21T08:37:35;88.65;;;32.53;;
55218;SDS011;65463;43.864;20.136;2023-11-21T08:40:03;61.72;;;28.45;;
55218;SDS011;65463;43.864;20.136;2023-11-21T08:42:30;64.47;;;31.35;;
55218;SDS011;65463;43.864;20.136;2023-11-21T08:44:56;61.78;;;32.55;;
55218;SDS011;65463;43.864;20.136;2023-11-21T08:47:23;70.13;;;34.65;;
55218;SDS011;65463;43.864;20.136;2023-11-21T08:49:52;64.40;;;32.00;;
55218;SDS011;65463;43.864;20.136;2023-11-21T08:52:18;67.57;;;32.25;;
55218;SDS011;65463;43.864;20.136;2023-11-21T08:54:50;81.07;;;33.08;;
55218;SDS011;65463;43.864;20.136;2023-11-21T08:57:24;66.38;;;32.30;;
55218;SDS011;65463;43.864;20.136;2023-11-21T08:59:51;70.18;;;32.42;;
55218;SDS011;65463;43.864;20.136;2023-11-21T09:02:25;74.97;;;36.70;;
55218;SDS011;65463;43.864;20.136;2023-11-21T09:04:52;83.28;;;41.72;;
55218;SDS011;65463;43.864;20.136;2023-11-21T09:07:21;75.38;;;37.28;;
55218;SDS011;65463;43.864;20.136;2023-11-21T09:09:47;92.25;;;38.70;;
55218;SDS011;65463;43.864;20.136;2023-11-21T09:12:14;94.45;;;43.05;;
55218;SDS011;65463;43.864;20.136;2023-11-21T09:14:41;95.68;;;46.92;;
55218;SDS011;65463;43.864;20.136;2023-11-21T09:17:07;103.05;;;47.00;;
55218;SDS011;65463;43.864;20.136;2023-11-21T09:19:39;78.13;;;36.78;;
55218;SDS011;65463;43.864;20.136;2023-11-21T09:22:05;77.63;;;38.90;;
55218;SDS011;65463;43.864;20.136;2023-11-21T09:24:31;71.53;;;33.20;;
55218;SDS011;65463;43.864;20.136;2023-11-21T09:26:58;62.95;;;32.67;;
55218;SDS011;65463;43.864;20.136;2023-11-21T09:29:25;54.28;;;30.33;;
55218;SDS011;65463;43.864;20.136;2023-11-21T09:31:51;63.67;;;31.48;;
55218;SDS011;65463;43.864;20.136;2023-11-21T09:34:19;60.17;;;29.92;;
55218;SDS011;65463;43.864;20.136;2023-11-21T09:36:46;62.35;;;34.63;;
55218;SDS011;65463;43.864;20.136;2023-11-21T09:39:12;71.90;;;36.20;;
55218;SDS011;65463;43.864;20.136;2023-11-21T09:41:44;80.72;;;41.40;;
55218;SDS011;65463;43.864;20.136;2023-11-21T09:44:13;77.20;;;41.10;;
55218;SDS011;65463;43.864;20.136;2023-11-21T09:46:40;82.20;;;41.13;;
55218;SDS011;65463;43.864;20.136;2023-11-21T09:49:10;69.50;;;37.00;;
55218;SDS011;65463;43.864;20.136;2023-11-21T09:51:39;84.63;;;42.17;;
55218;SDS011;65463;43.864;20.136;2023-11-21T09:54:05;91.53;;;48.58;;
55218;SDS011;65463;43.864;20.136;2023-11-21T09:56:34;84.15;;;42.28;;
55218;SDS011;65463;43.864;20.136;2023-11-21T09:59:01;80.82;;;42.30;;
55218;SDS011;65463;43.864;20.136;2023-11-21T10:01:33;71.57;;;34.95;;
55218;SDS011;65463;43.864;20.136;2023-11-21T10:04:02;77.50;;;34.83;;
55218;SDS011;65463;43.864;20.136;2023-11-21T10:06:30;77.10;;;36.83;;
55218;SDS011;65463;43.864;20.136;2023-11-21T10:08:57;84.05;;;39.83;;
55218;SDS011;65463;43.864;20.136;2023-11-21T10:11:25;69.72;;;36.97;;
55218;SDS011;65463;43.864;20.136;2023-11-21T10:13:53;75.55;;;39.05;;
55218;SDS011;65463;43.864;20.136;2023-11-21T10:16:22;69.65;;;38.63;;
55218;SDS011;65463;43.864;20.136;2023-11-21T10:18:51;74.35;;;38.30;;
55218;SDS011;65463;43.864;20.136;2023-11-21T10:21:20;78.22;;;42.15;;
55218;SDS011;65463;43.864;20.136;2023-11-21T10:23:47;85.97;;;44.90;;
55218;SDS011;65463;43.864;20.136;2023-11-21T10:26:13;96.38;;;47.22;;
55218;SDS011;65463;43.864;20.136;2023-11-21T10:28:57;86.63;;;45.72;;
55218;SDS011;65463;43.864;20.136;2023-11-21T10:31:24;75.90;;;40.03;;
55218;SDS011;65463;43.864;20.136;2023-11-21T10:33:50;86.75;;;42.20;;
55218;SDS011;65463;43.864;20.136;2023-11-21T10:36:26;74.75;;;40.45;;
55218;SDS011;65463;43.864;20.136;2023-11-21T10:38:53;90.97;;;48.80;;
55218;SDS011;65463;43.864;20.136;2023-11-21T10:41:20;82.07;;;43.65;;
55218;SDS011;65463;43.864;20.136;2023-11-21T10:43:46;72.85;;;37.90;;
55218;SDS011;65463;43.864;20.136;2023-11-21T10:46:13;94.22;;;47.30;;
55218;SDS011;65463;43.864;20.136;2023-11-21T10:48:41;94.43;;;47.25;;
55218;SDS011;65463;43.864;20.136;2023-11-21T10:51:08;89.60;;;44.72;;
55218;SDS011;65463;43.864;20.136;2023-11-21T10:53:40;95.63;;;47.90;;
55218;SDS011;65463;43.864;20.136;2023-11-21T10:56:08;85.57;;;42.88;;
55218;SDS011;65463;43.864;20.136;2023-11-21T10:58:43;75.88;;;41.30;;
55218;SDS011;65463;43.864;20.136;2023-11-21T11:01:09;72.60;;;38.17;;
55218;SDS011;65463;43.864;20.136;2023-11-21T11:03:39;68.22;;;36.28;;
55218;SDS011;65463;43.864;20.136;2023-11-21T11:06:06;75.55;;;38.95;;
55218;SDS011;65463;43.864;20.136;2023-11-21T11:08:39;71.05;;;39.00;;
55218;SDS011;65463;43.864;20.136;2023-11-21T11:11:05;66.78;;;35.05;;
55218;SDS011;65463;43.864;20.136;2023-11-21T11:13:32;78.88;;;41.88;;
55218;SDS011;65463;43.864;20.136;2023-11-21T11:15:59;76.03;;;40.00;;
55218;SDS011;65463;43.864;20.136;2023-11-21T11:18:29;91.18;;;40.70;;
55218;SDS011;65463;43.864;20.136;2023-11-21T11:21:01;107.15;;;45.00;;
55218;SDS011;65463;43.864;20.136;2023-11-21T11:28:35;96.63;;;52.15;;
55218;SDS011;65463;43.864;20.136;2023-11-21T11:33:36;76.35;;;42.83;;
55218;SDS011;65463;43.864;20.136;2023-11-21T11:36:13;73.47;;;41.72;;
55218;SDS011;65463;43.864;20.136;2023-11-21T11:38:45;79.97;;;44.85;;
55218;SDS011;65463;43.864;20.136;2023-11-21T11:41:11;79.30;;;43.67;;
55218;SDS011;65463;43.864;20.136;2023-11-21T11:43:37;91.10;;;43.65;;
55218;SDS011;65463;43.864;20.136;2023-11-21T11:46:10;101.07;;;46.17;;
55218;SDS011;65463;43.864;20.136;2023-11-21T11:48:40;85.75;;;42.25;;
55218;SDS011;65463;43.864;20.136;2023-11-21T11:51:09;81.82;;;42.15;;
55218;SDS011;65463;43.864;20.136;2023-11-21T11:53:42;83.25;;;41.00;;
55218;SDS011;65463;43.864;20.136;2023-11-21T11:58:56;103.00;;;44.30;;
55218;SDS011;65463;43.864;20.136;2023-11-21T12:01:23;98.32;;;41.92;;
55218;SDS011;65463;43.864;20.136;2023-11-21T12:06:35;96.53;;;46.95;;
55218;SDS011;65463;43.864;20.136;2023-11-21T12:09:01;92.78;;;43.03;;
55218;SDS011;65463;43.864;20.136;2023-11-21T12:11:31;109.68;;;48.00;;
55218;SDS011;65463;43.864;20.136;2023-11-21T12:13:57;91.95;;;45.88;;
55218;SDS011;65463;43.864;20.136;2023-11-21T12:16:25;89.82;;;43.92;;
55218;SDS011;65463;43.864;20.136;2023-11-21T12:18:55;94.28;;;48.97;;
55218;SDS011;65463;43.864;20.136;2023-11-21T12:21:21;89.82;;;43.25;;
55218;SDS011;65463;43.864;20.136;2023-11-21T12:23:48;76.53;;;41.58;;
55218;SDS011;65463;43.864;20.136;2023-11-21T12:26:14;81.43;;;40.03;;
55218;SDS011;65463;43.864;20.136;2023-11-21T12:28:40;80.63;;;40.92;;
55218;SDS011;65463;43.864;20.136;2023-11-21T12:31:06;61.67;;;35.65;;
55218;SDS011;65463;43.864;20.136;2023-11-21T12:33:35;68.60;;;35.30;;
55218;SDS011;65463;43.864;20.136;2023-11-21T12:36:02;75.03;;;32.60;;
55218;SDS011;65463;43.864;20.136;2023-11-21T12:38:34;67.22;;;32.72;;
55218;SDS011;65463;43.864;20.136;2023-11-21T12:41:01;65.57;;;32.47;;
55218;SDS011;65463;43.864;20.136;2023-11-21T12:43:27;64.18;;;30.48;;
55218;SDS011;65463;43.864;20.136;2023-11-21T12:46:07;56.33;;;29.98;;
55218;SDS011;65463;43.864;20.136;2023-11-21T12:48:36;62.95;;;34.22;;
55218;SDS011;65463;43.864;20.136;2023-11-21T12:51:09;65.85;;;36.47;;
55218;SDS011;65463;43.864;20.136;2023-11-21T12:53:39;64.15;;;35.25;;
55218;SDS011;65463;43.864;20.136;2023-11-21T12:56:15;62.58;;;33.85;;
55218;SDS011;65463;43.864;20.136;2023-11-21T12:58:44;51.88;;;30.35;;
55218;SDS011;65463;43.864;20.136;2023-11-21T13:01:13;58.22;;;33.75;;
55218;SDS011;65463;43.864;20.136;2023-11-21T13:03:45;54.15;;;29.20;;
55218;SDS011;65463;43.864;20.136;2023-11-21T13:06:14;51.45;;;29.65;;
55218;SDS011;65463;43.864;20.136;2023-11-21T13:08:41;46.30;;;28.27;;
55218;SDS011;65463;43.864;20.136;2023-11-21T13:11:07;46.28;;;29.80;;
55218;SDS011;65463;43.864;20.136;2023-11-21T13:13:33;51.05;;;31.33;;
55218;SDS011;65463;43.864;20.136;2023-11-21T13:16:00;49.72;;;30.25;;
55218;SDS011;65463;43.864;20.136;2023-11-21T13:18:29;57.57;;;34.17;;
55218;SDS011;65463;43.864;20.136;2023-11-21T13:20:57;50.00;;;29.88;;
55218;SDS011;65463;43.864;20.136;2023-11-21T13:23:24;62.10;;;35.10;;
55218;SDS011;65463;43.864;20.136;2023-11-21T13:25:50;62.53;;;33.45;;
55218;SDS011;65463;43.864;20.136;2023-11-21T13:28:16;46.30;;;27.08;;
55218;SDS011;65463;43.864;20.136;2023-11-21T13:30:49;50.95;;;29.17;;
55218;SDS011;65463;43.864;20.136;2023-11-21T13:33:18;47.85;;;28.33;;
55218;SDS011;65463;43.864;20.136;2023-11-21T13:35:47;54.15;;;31.88;;
55218;SDS011;65463;43.864;20.136;2023-11-21T13:38:15;51.08;;;29.40;;
55218;SDS011;65463;43.864;20.136;2023-11-21T13:40:57;49.38;;;30.23;;
55218;SDS011;65463;43.864;20.136;2023-11-21T13:43:24;50.05;;;28.38;;
55218;SDS011;65463;43.864;20.136;2023-11-21T13:45:51;46.97;;;28.63;;
55218;SDS011;65463;43.864;20.136;2023-11-21T13:48:25;42.00;;;27.40;;
55218;SDS011;65463;43.864;20.136;2023-11-21T13:50:57;43.95;;;26.55;;
55218;SDS011;65463;43.864;20.136;2023-11-21T13:53:26;45.03;;;28.63;;
55218;SDS011;65463;43.864;20.136;2023-11-21T13:55:55;47.45;;;28.88;;
55218;SDS011;65463;43.864;20.136;2023-11-21T13:58:23;47.95;;;28.30;;
55218;SDS011;65463;43.864;20.136;2023-11-21T14:01:25;54.63;;;33.08;;
55218;SDS011;65463;43.864;20.136;2023-11-21T14:03:58;52.80;;;31.85;;
55218;SDS011;65463;43.864;20.136;2023-11-21T14:06:37;50.60;;;30.80;;
55218;SDS011;65463;43.864;20.136;2023-11-21T14:09:13;46.92;;;27.83;;
55218;SDS011;65463;43.864;20.136;2023-11-21T14:11:47;47.25;;;26.40;;
55218;SDS011;65463;43.864;20.136;2023-11-21T14:14:14;50.67;;;30.15;;
55218;SDS011;65463;43.864;20.136;2023-11-21T14:16:45;47.42;;;28.60;;
55218;SDS011;65463;43.864;20.136;2023-11-21T14:19:12;55.55;;;30.63;;
55218;SDS011;65463;43.864;20.136;2023-11-21T14:21:41;52.63;;;31.05;;
55218;SDS011;65463;43.864;20.136;2023-11-21T14:24:08;50.85;;;30.05;;
55218;SDS011;65463;43.864;20.136;2023-11-21T14:26:35;54.10;;;33.60;;
55218;SDS011;65463;43.864;20.136;2023-11-21T14:29:01;54.83;;;33.20;;